sensor_id;sensor_type;location;lat;lon;timestamp;P1;durP1;ratioP1;P2;durP2;ratioP2
75700;SDS011;64321;48.796;44.740;2022-10-30T00:01:17;17.67;;;7.68;;
75700;SDS011;64321;48.796;44.740;2022-10-30T00:03:43;18.55;;;7.80;;
75700;SDS011;64321;48.796;44.740;2022-10-30T00:06:09;17.63;;;7.65;;
75700;SDS011;64321;48.796;44.740;2022-10-30T00:08:35;17.38;;;7.10;;
75700;SDS011;64321;48.796;44.740;2022-10-30T00:11:06;22.25;;;8.63;;
75700;SDS011;64321;48.796;44.740;2022-10-30T00:13:31;17.40;;;7.15;;
75700;SDS011;64321;48.796;44.740;2022-10-30T00:15:58;13.32;;;6.07;;
75700;SDS011;64321;48.796;44.740;2022-10-30T00:18:23;16.85;;;7.10;;
75700;SDS011;64321;48.796;44.740;2022-10-30T00:20:49;16.52;;;7.90;;
75700;SDS011;64321;48.796;44.740;2022-10-30T00:23:15;16.85;;;7.40;;
75700;SDS011;64321;48.796;44.740;2022-10-30T00:25:40;18.73;;;7.65;;
75700;SDS011;64321;48.796;44.740;2022-10-30T00:28:06;18.02;;;8.48;;
75700;SDS011;64321;48.796;44.740;2022-10-30T00:30:32;17.25;;;7.28;;
75700;SDS011;64321;48.796;44.740;2022-10-30T00:32:58;15.90;;;7.55;;
75700;SDS011;64321;48.796;44.740;2022-10-30T00:35:25;19.48;;;7.20;;
75700;SDS011;64321;48.796;44.740;2022-10-30T00:37:51;19.45;;;7.13;;
75700;SDS011;64321;48.796;44.740;2022-10-30T00:40:17;19.55;;;7.78;;
75700;SDS011;64321;48.796;44.740;2022-10-30T00:42:43;18.60;;;7.95;;
75700;SDS011;64321;48.796;44.740;2022-10-30T00:45:12;17.15;;;7.93;;
75700;SDS011;64321;48.796;44.740;2022-10-30T00:47:45;21.55;;;8.27;;
75700;SDS011;64321;48.796;44.740;2022-10-30T00:50:20;19.67;;;7.85;;
75700;SDS011;64321;48.796;44.740;2022-10-30T00:52:47;18.42;;;7.80;;
75700;SDS011;64321;48.796;44.740;2022-10-30T00:55:16;18.92;;;8.38;;
75700;SDS011;64321;48.796;44.740;2022-10-30T00:57:42;20.02;;;8.20;;
75700;SDS011;64321;48.796;44.740;2022-10-30T01:00:08;16.75;;;7.90;;
75700;SDS011;64321;48.796;44.740;2022-10-30T01:02:35;21.95;;;8.82;;
75700;SDS011;64321;48.796;44.740;2022-10-30T01:05:01;20.90;;;8.50;;
75700;SDS011;64321;48.796;44.740;2022-10-30T01:07:28;19.85;;;9.68;;
75700;SDS011;64321;48.796;44.740;2022-10-30T01:09:54;24.35;;;10.50;;
75700;SDS011;64321;48.796;44.740;2022-10-30T01:12:20;20.50;;;9.43;;
75700;SDS011;64321;48.796;44.740;2022-10-30T01:14:48;20.65;;;9.18;;
75700;SDS011;64321;48.796;44.740;2022-10-30T01:25:11;19.58;;;8.68;;
75700;SDS011;64321;48.796;44.740;2022-10-30T01:27:38;22.25;;;10.02;;
75700;SDS011;64321;48.796;44.740;2022-10-30T01:35:11;23.27;;;8.90;;
75700;SDS011;64321;48.796;44.740;2022-10-30T01:40:31;21.40;;;9.23;;
75700;SDS011;64321;48.796;44.740;2022-10-30T01:42:57;17.13;;;8.68;;
75700;SDS011;64321;48.796;44.740;2022-10-30T01:48:28;20.08;;;8.73;;
75700;SDS011;64321;48.796;44.740;2022-10-30T01:53:48;23.48;;;9.15;;
75700;SDS011;64321;48.796;44.740;2022-10-30T01:56:19;18.83;;;8.50;;
75700;SDS011;64321;48.796;44.740;2022-10-30T01:58:49;20.63;;;8.93;;
75700;SDS011;64321;48.796;44.740;2022-10-30T02:01:17;17.63;;;8.25;;
75700;SDS011;64321;48.796;44.740;2022-10-30T02:03:43;18.17;;;8.98;;
75700;SDS011;64321;48.796;44.740;2022-10-30T02:06:09;18.10;;;8.20;;
75700;SDS011;64321;48.796;44.740;2022-10-30T02:08:34;19.55;;;8.77;;
75700;SDS011;64321;48.796;44.740;2022-10-30T02:11:00;18.13;;;8.15;;
75700;SDS011;64321;48.796;44.740;2022-10-30T02:13:36;16.52;;;8.50;;
75700;SDS011;64321;48.796;44.740;2022-10-30T02:16:03;19.73;;;8.25;;
75700;SDS011;64321;48.796;44.740;2022-10-30T02:18:28;16.40;;;7.82;;
75700;SDS011;64321;48.796;44.740;2022-10-30T02:20:54;19.70;;;8.63;;
75700;SDS011;64321;48.796;44.740;2022-10-30T02:23:20;22.10;;;9.73;;
75700;SDS011;64321;48.796;44.740;2022-10-30T02:25:48;18.48;;;8.65;;
75700;SDS011;64321;48.796;44.740;2022-10-30T02:28:14;18.55;;;7.90;;
75700;SDS011;64321;48.796;44.740;2022-10-30T02:30:39;17.48;;;8.30;;
75700;SDS011;64321;48.796;44.740;2022-10-30T02:33:09;19.40;;;8.93;;
75700;SDS011;64321;48.796;44.740;2022-10-30T02:35:34;18.23;;;8.25;;
75700;SDS011;64321;48.796;44.740;2022-10-30T02:38:00;17.65;;;8.25;;
75700;SDS011;64321;48.796;44.740;2022-10-30T02:40:28;14.57;;;7.90;;
75700;SDS011;64321;48.796;44.740;2022-10-30T02:42:55;14.55;;;7.63;;
75700;SDS011;64321;48.796;44.740;2022-10-30T02:45:20;16.85;;;7.75;;
75700;SDS011;64321;48.796;44.740;2022-10-30T02:47:46;16.30;;;7.47;;
75700;SDS011;64321;48.796;44.740;2022-10-30T02:50:12;17.20;;;7.90;;
75700;SDS011;64321;48.796;44.740;2022-10-30T02:52:38;19.75;;;8.45;;
75700;SDS011;64321;48.796;44.740;2022-10-30T02:55:04;21.50;;;8.88;;
75700;SDS011;64321;48.796;44.740;2022-10-30T02:57:30;15.68;;;7.70;;
75700;SDS011;64321;48.796;44.740;2022-10-30T02:59:56;18.23;;;7.75;;
75700;SDS011;64321;48.796;44.740;2022-10-30T03:02:22;16.63;;;8.18;;
75700;SDS011;64321;48.796;44.740;2022-10-30T03:04:48;18.83;;;9.45;;
75700;SDS011;64321;48.796;44.740;2022-10-30T03:07:14;14.93;;;7.05;;
75700;SDS011;64321;48.796;44.740;2022-10-30T03:09:40;17.17;;;7.82;;
75700;SDS011;64321;48.796;44.740;2022-10-30T03:12:06;17.30;;;6.88;;
75700;SDS011;64321;48.796;44.740;2022-10-30T03:14:32;17.45;;;7.40;;
75700;SDS011;64321;48.796;44.740;2022-10-30T03:16:58;17.17;;;7.82;;
75700;SDS011;64321;48.796;44.740;2022-10-30T03:19:23;15.90;;;7.38;;
75700;SDS011;64321;48.796;44.740;2022-10-30T03:21:51;16.25;;;8.05;;
75700;SDS011;64321;48.796;44.740;2022-10-30T03:24:17;16.30;;;8.32;;
75700;SDS011;64321;48.796;44.740;2022-10-30T03:26:43;17.38;;;8.18;;
75700;SDS011;64321;48.796;44.740;2022-10-30T03:29:09;18.30;;;7.07;;
75700;SDS011;64321;48.796;44.740;2022-10-30T03:31:34;14.52;;;6.80;;
75700;SDS011;64321;48.796;44.740;2022-10-30T03:34:13;15.73;;;7.10;;
75700;SDS011;64321;48.796;44.740;2022-10-30T03:36:40;17.25;;;7.60;;
75700;SDS011;64321;48.796;44.740;2022-10-30T03:39:06;18.65;;;7.38;;
75700;SDS011;64321;48.796;44.740;2022-10-30T03:41:32;18.58;;;7.95;;
75700;SDS011;64321;48.796;44.740;2022-10-30T03:43:59;14.75;;;6.43;;
75700;SDS011;64321;48.796;44.740;2022-10-30T03:46:25;16.58;;;7.82;;
75700;SDS011;64321;48.796;44.740;2022-10-30T03:48:53;14.52;;;6.90;;
75700;SDS011;64321;48.796;44.740;2022-10-30T03:51:20;13.07;;;6.20;;
75700;SDS011;64321;48.796;44.740;2022-10-30T03:53:46;24.45;;;7.35;;
75700;SDS011;64321;48.796;44.740;2022-10-30T03:56:12;14.85;;;6.97;;
75700;SDS011;64321;48.796;44.740;2022-10-30T03:58:47;16.45;;;7.65;;
75700;SDS011;64321;48.796;44.740;2022-10-30T04:04:10;16.88;;;7.68;;
75700;SDS011;64321;48.796;44.740;2022-10-30T04:06:36;14.43;;;6.93;;
75700;SDS011;64321;48.796;44.740;2022-10-30T04:09:03;14.82;;;7.18;;
75700;SDS011;64321;48.796;44.740;2022-10-30T04:11:35;15.40;;;8.48;;
75700;SDS011;64321;48.796;44.740;2022-10-30T04:14:00;14.80;;;7.47;;
75700;SDS011;64321;48.796;44.740;2022-10-30T04:16:26;14.48;;;8.02;;
75700;SDS011;64321;48.796;44.740;2022-10-30T04:18:52;13.13;;;6.95;;
75700;SDS011;64321;48.796;44.740;2022-10-30T04:21:18;12.15;;;6.68;;
75700;SDS011;64321;48.796;44.740;2022-10-30T04:23:43;14.25;;;7.20;;
75700;SDS011;64321;48.796;44.740;2022-10-30T04:26:09;13.13;;;6.40;;
75700;SDS011;64321;48.796;44.740;2022-10-30T04:28:38;7.55;;;3.78;;
75700;SDS011;64321;48.796;44.740;2022-10-30T04:31:04;12.70;;;5.47;;
75700;SDS011;64321;48.796;44.740;2022-10-30T04:33:31;12.05;;;6.35;;
75700;SDS011;64321;48.796;44.740;2022-10-30T04:35:58;12.90;;;6.35;;
75700;SDS011;64321;48.796;44.740;2022-10-30T04:38:23;10.77;;;5.28;;
75700;SDS011;64321;48.796;44.740;2022-10-30T04:40:49;12.68;;;5.72;;
75700;SDS011;64321;48.796;44.740;2022-10-30T04:43:16;10.65;;;6.35;;
75700;SDS011;64321;48.796;44.740;2022-10-30T04:45:46;11.43;;;6.43;;
75700;SDS011;64321;48.796;44.740;2022-10-30T04:48:13;12.30;;;6.47;;
75700;SDS011;64321;48.796;44.740;2022-10-30T04:53:07;13.82;;;6.70;;
75700;SDS011;64321;48.796;44.740;2022-10-30T04:55:35;12.30;;;6.20;;
75700;SDS011;64321;48.796;44.740;2022-10-30T04:58:01;10.80;;;6.05;;
75700;SDS011;64321;48.796;44.740;2022-10-30T05:03:00;9.57;;;5.47;;
75700;SDS011;64321;48.796;44.740;2022-10-30T05:05:26;10.27;;;5.65;;
75700;SDS011;64321;48.796;44.740;2022-10-30T05:07:52;11.50;;;6.90;;
75700;SDS011;64321;48.796;44.740;2022-10-30T05:10:18;12.25;;;6.15;;
75700;SDS011;64321;48.796;44.740;2022-10-30T05:12:44;9.23;;;5.47;;
75700;SDS011;64321;48.796;44.740;2022-10-30T05:15:11;13.10;;;5.65;;
75700;SDS011;64321;48.796;44.740;2022-10-30T05:17:37;9.88;;;4.57;;
75700;SDS011;64321;48.796;44.740;2022-10-30T05:20:03;11.20;;;5.90;;
75700;SDS011;64321;48.796;44.740;2022-10-30T05:22:30;10.93;;;5.50;;
75700;SDS011;64321;48.796;44.740;2022-10-30T05:24:58;12.05;;;6.55;;
75700;SDS011;64321;48.796;44.740;2022-10-30T05:27:23;9.65;;;4.78;;
75700;SDS011;64321;48.796;44.740;2022-10-30T05:29:49;12.73;;;6.82;;
75700;SDS011;64321;48.796;44.740;2022-10-30T05:32:15;14.75;;;7.13;;
75700;SDS011;64321;48.796;44.740;2022-10-30T05:34:44;11.30;;;5.85;;
75700;SDS011;64321;48.796;44.740;2022-10-30T05:37:11;11.05;;;6.32;;
75700;SDS011;64321;48.796;44.740;2022-10-30T05:39:37;12.20;;;6.75;;
75700;SDS011;64321;48.796;44.740;2022-10-30T05:42:08;13.00;;;7.07;;
75700;SDS011;64321;48.796;44.740;2022-10-30T05:44:41;10.95;;;5.60;;
75700;SDS011;64321;48.796;44.740;2022-10-30T05:47:07;10.18;;;6.10;;
75700;SDS011;64321;48.796;44.740;2022-10-30T05:49:34;10.50;;;6.03;;
75700;SDS011;64321;48.796;44.740;2022-10-30T05:52:02;11.52;;;6.35;;
75700;SDS011;64321;48.796;44.740;2022-10-30T05:54:27;11.23;;;5.75;;
75700;SDS011;64321;48.796;44.740;2022-10-30T05:57:13;12.07;;;5.70;;
75700;SDS011;64321;48.796;44.740;2022-10-30T05:59:39;12.68;;;4.70;;
75700;SDS011;64321;48.796;44.740;2022-10-30T06:02:05;12.50;;;6.88;;
75700;SDS011;64321;48.796;44.740;2022-10-30T06:04:31;10.43;;;5.57;;
75700;SDS011;64321;48.796;44.740;2022-10-30T06:06:58;12.52;;;7.10;;
75700;SDS011;64321;48.796;44.740;2022-10-30T06:09:24;14.18;;;7.55;;
75700;SDS011;64321;48.796;44.740;2022-10-30T06:12:00;13.10;;;5.75;;
75700;SDS011;64321;48.796;44.740;2022-10-30T06:14:38;14.13;;;6.72;;
75700;SDS011;64321;48.796;44.740;2022-10-30T06:17:03;10.77;;;6.20;;
75700;SDS011;64321;48.796;44.740;2022-10-30T06:19:32;13.55;;;7.07;;
75700;SDS011;64321;48.796;44.740;2022-10-30T06:22:25;7.65;;;4.82;;
75700;SDS011;64321;48.796;44.740;2022-10-30T06:25:01;10.93;;;5.63;;
75700;SDS011;64321;48.796;44.740;2022-10-30T06:27:49;12.68;;;6.30;;
75700;SDS011;64321;48.796;44.740;2022-10-30T06:30:15;9.43;;;5.15;;
75700;SDS011;64321;48.796;44.740;2022-10-30T06:32:41;13.00;;;6.75;;
75700;SDS011;64321;48.796;44.740;2022-10-30T06:35:07;11.80;;;6.25;;
75700;SDS011;64321;48.796;44.740;2022-10-30T06:37:33;10.40;;;5.35;;
75700;SDS011;64321;48.796;44.740;2022-10-30T06:40:05;10.38;;;5.88;;
75700;SDS011;64321;48.796;44.740;2022-10-30T06:42:44;11.68;;;6.28;;
75700;SDS011;64321;48.796;44.740;2022-10-30T06:45:25;8.55;;;5.28;;
75700;SDS011;64321;48.796;44.740;2022-10-30T06:47:51;13.18;;;6.93;;
75700;SDS011;64321;48.796;44.740;2022-10-30T06:50:18;9.75;;;5.40;;
75700;SDS011;64321;48.796;44.740;2022-10-30T06:52:44;13.15;;;4.35;;
75700;SDS011;64321;48.796;44.740;2022-10-30T06:55:10;11.30;;;6.47;;
75700;SDS011;64321;48.796;44.740;2022-10-30T06:57:58;8.48;;;4.88;;
75700;SDS011;64321;48.796;44.740;2022-10-30T07:00:37;10.13;;;5.32;;
75700;SDS011;64321;48.796;44.740;2022-10-30T07:03:19;10.05;;;5.82;;
75700;SDS011;64321;48.796;44.740;2022-10-30T07:05:45;9.95;;;5.82;;
75700;SDS011;64321;48.796;44.740;2022-10-30T07:08:11;10.95;;;5.43;;
75700;SDS011;64321;48.796;44.740;2022-10-30T07:10:37;10.00;;;6.13;;
75700;SDS011;64321;48.796;44.740;2022-10-30T07:13:22;9.02;;;5.18;;
75700;SDS011;64321;48.796;44.740;2022-10-30T07:18:43;13.82;;;5.32;;
75700;SDS011;64321;48.796;44.740;2022-10-30T07:21:09;16.38;;;7.97;;
75700;SDS011;64321;48.796;44.740;2022-10-30T07:23:35;12.52;;;7.05;;
75700;SDS011;64321;48.796;44.740;2022-10-30T07:26:15;10.20;;;5.03;;
75700;SDS011;64321;48.796;44.740;2022-10-30T07:28:44;11.30;;;6.00;;
75700;SDS011;64321;48.796;44.740;2022-10-30T07:31:33;11.05;;;5.53;;
75700;SDS011;64321;48.796;44.740;2022-10-30T07:34:18;8.52;;;4.05;;
75700;SDS011;64321;48.796;44.740;2022-10-30T07:37:13;12.88;;;5.78;;
75700;SDS011;64321;48.796;44.740;2022-10-30T07:39:48;10.52;;;5.88;;
75700;SDS011;64321;48.796;44.740;2022-10-30T07:42:32;8.10;;;4.90;;
75700;SDS011;64321;48.796;44.740;2022-10-30T07:45:16;13.60;;;5.75;;
75700;SDS011;64321;48.796;44.740;2022-10-30T07:48:14;6.38;;;3.38;;
75700;SDS011;64321;48.796;44.740;2022-10-30T07:50:58;8.90;;;4.47;;
75700;SDS011;64321;48.796;44.740;2022-10-30T07:53:25;9.77;;;5.00;;
75700;SDS011;64321;48.796;44.740;2022-10-30T07:55:51;8.43;;;4.03;;
75700;SDS011;64321;48.796;44.740;2022-10-30T07:58:34;8.50;;;5.25;;
75700;SDS011;64321;48.796;44.740;2022-10-30T08:01:04;7.45;;;3.40;;
75700;SDS011;64321;48.796;44.740;2022-10-30T08:03:32;8.73;;;5.00;;
75700;SDS011;64321;48.796;44.740;2022-10-30T08:06:20;8.45;;;5.13;;
75700;SDS011;64321;48.796;44.740;2022-10-30T08:08:46;8.05;;;4.18;;
75700;SDS011;64321;48.796;44.740;2022-10-30T08:11:22;7.78;;;4.35;;
75700;SDS011;64321;48.796;44.740;2022-10-30T08:13:48;8.70;;;3.47;;
75700;SDS011;64321;48.796;44.740;2022-10-30T08:16:16;7.90;;;3.92;;
75700;SDS011;64321;48.796;44.740;2022-10-30T08:18:42;9.18;;;4.20;;
75700;SDS011;64321;48.796;44.740;2022-10-30T08:21:09;6.07;;;2.17;;
75700;SDS011;64321;48.796;44.740;2022-10-30T08:23:42;9.43;;;4.15;;
75700;SDS011;64321;48.796;44.740;2022-10-30T08:26:12;9.35;;;3.55;;
75700;SDS011;64321;48.796;44.740;2022-10-30T08:28:38;11.07;;;4.93;;
75700;SDS011;64321;48.796;44.740;2022-10-30T08:31:07;8.38;;;3.80;;
75700;SDS011;64321;48.796;44.740;2022-10-30T08:33:52;7.07;;;4.18;;
75700;SDS011;64321;48.796;44.740;2022-10-30T08:36:34;5.45;;;2.72;;
75700;SDS011;64321;48.796;44.740;2022-10-30T08:39:00;9.27;;;4.57;;
75700;SDS011;64321;48.796;44.740;2022-10-30T08:41:55;8.63;;;5.53;;
75700;SDS011;64321;48.796;44.740;2022-10-30T08:44:21;9.05;;;5.18;;
75700;SDS011;64321;48.796;44.740;2022-10-30T08:47:05;6.72;;;3.33;;
75700;SDS011;64321;48.796;44.740;2022-10-30T08:49:31;7.63;;;4.60;;
75700;SDS011;64321;48.796;44.740;2022-10-30T08:52:00;7.97;;;4.57;;
75700;SDS011;64321;48.796;44.740;2022-10-30T08:54:25;8.27;;;3.83;;
75700;SDS011;64321;48.796;44.740;2022-10-30T08:56:52;7.00;;;3.97;;
75700;SDS011;64321;48.796;44.740;2022-10-30T08:59:18;9.10;;;5.50;;
75700;SDS011;64321;48.796;44.740;2022-10-30T09:01:44;11.65;;;5.22;;
75700;SDS011;64321;48.796;44.740;2022-10-30T09:04:19;9.10;;;5.03;;
75700;SDS011;64321;48.796;44.740;2022-10-30T09:06:47;5.25;;;2.92;;
75700;SDS011;64321;48.796;44.740;2022-10-30T09:09:51;9.57;;;5.38;;
75700;SDS011;64321;48.796;44.740;2022-10-30T09:12:17;8.15;;;5.03;;
75700;SDS011;64321;48.796;44.740;2022-10-30T09:14:45;10.63;;;5.07;;
75700;SDS011;64321;48.796;44.740;2022-10-30T09:17:11;8.48;;;5.05;;
75700;SDS011;64321;48.796;44.740;2022-10-30T09:19:39;11.00;;;5.05;;
75700;SDS011;64321;48.796;44.740;2022-10-30T09:22:06;8.18;;;3.90;;
75700;SDS011;64321;48.796;44.740;2022-10-30T09:24:37;10.07;;;4.10;;
75700;SDS011;64321;48.796;44.740;2022-10-30T09:27:28;6.47;;;3.25;;
75700;SDS011;64321;48.796;44.740;2022-10-30T09:29:56;9.25;;;4.70;;
75700;SDS011;64321;48.796;44.740;2022-10-30T09:32:24;7.00;;;4.50;;
75700;SDS011;64321;48.796;44.740;2022-10-30T09:35:09;9.38;;;5.22;;
75700;SDS011;64321;48.796;44.740;2022-10-30T09:37:37;10.07;;;6.05;;
75700;SDS011;64321;48.796;44.740;2022-10-30T09:40:09;11.82;;;6.22;;
75700;SDS011;64321;48.796;44.740;2022-10-30T09:42:43;10.38;;;4.88;;
75700;SDS011;64321;48.796;44.740;2022-10-30T09:47:49;8.98;;;4.85;;
75700;SDS011;64321;48.796;44.740;2022-10-30T09:50:23;10.40;;;5.63;;
75700;SDS011;64321;48.796;44.740;2022-10-30T09:55:39;10.77;;;4.70;;
75700;SDS011;64321;48.796;44.740;2022-10-30T10:00:34;7.38;;;4.03;;
75700;SDS011;64321;48.796;44.740;2022-10-30T10:06:26;7.40;;;4.47;;
75700;SDS011;64321;48.796;44.740;2022-10-30T10:09:14;10.63;;;5.22;;
75700;SDS011;64321;48.796;44.740;2022-10-30T10:12:20;9.27;;;5.32;;
75700;SDS011;64321;48.796;44.740;2022-10-30T10:14:47;8.50;;;4.00;;
75700;SDS011;64321;48.796;44.740;2022-10-30T10:17:15;8.18;;;4.25;;
75700;SDS011;64321;48.796;44.740;2022-10-30T10:19:46;6.68;;;3.95;;
75700;SDS011;64321;48.796;44.740;2022-10-30T10:22:20;6.22;;;2.97;;
75700;SDS011;64321;48.796;44.740;2022-10-30T10:24:46;5.95;;;3.08;;
75700;SDS011;64321;48.796;44.740;2022-10-30T10:38:25;6.57;;;3.60;;
75700;SDS011;64321;48.796;44.740;2022-10-30T10:43:57;6.20;;;3.75;;
75700;SDS011;64321;48.796;44.740;2022-10-30T10:51:38;5.65;;;3.13;;
75700;SDS011;64321;48.796;44.740;2022-10-30T10:54:13;4.82;;;2.22;;
75700;SDS011;64321;48.796;44.740;2022-10-30T10:56:41;8.68;;;3.90;;
75700;SDS011;64321;48.796;44.740;2022-10-30T11:01:37;6.03;;;3.80;;
75700;SDS011;64321;48.796;44.740;2022-10-30T11:04:10;6.43;;;3.63;;
75700;SDS011;64321;48.796;44.740;2022-10-30T11:06:39;5.95;;;2.97;;
75700;SDS011;64321;48.796;44.740;2022-10-30T11:11:44;8.90;;;3.45;;
75700;SDS011;64321;48.796;44.740;2022-10-30T11:14:17;7.18;;;4.05;;
75700;SDS011;64321;48.796;44.740;2022-10-30T11:19:30;6.93;;;4.22;;
75700;SDS011;64321;48.796;44.740;2022-10-30T11:21:56;7.32;;;4.15;;
75700;SDS011;64321;48.796;44.740;2022-10-30T11:26:55;8.00;;;4.60;;
75700;SDS011;64321;48.796;44.740;2022-10-30T11:29:23;6.85;;;3.63;;
75700;SDS011;64321;48.796;44.740;2022-10-30T11:32:03;8.93;;;4.97;;
75700;SDS011;64321;48.796;44.740;2022-10-30T11:34:35;6.78;;;4.68;;
75700;SDS011;64321;48.796;44.740;2022-10-30T11:37:03;8.57;;;4.90;;
75700;SDS011;64321;48.796;44.740;2022-10-30T11:39:29;6.97;;;4.20;;
75700;SDS011;64321;48.796;44.740;2022-10-30T11:42:10;7.15;;;4.13;;
75700;SDS011;64321;48.796;44.740;2022-10-30T11:44:47;7.18;;;4.40;;
75700;SDS011;64321;48.796;44.740;2022-10-30T11:47:21;5.88;;;3.10;;
75700;SDS011;64321;48.796;44.740;2022-10-30T11:49:56;6.18;;;3.95;;
75700;SDS011;64321;48.796;44.740;2022-10-30T11:52:22;6.07;;;4.15;;
75700;SDS011;64321;48.796;44.740;2022-10-30T11:54:52;6.88;;;3.88;;
75700;SDS011;64321;48.796;44.740;2022-10-30T11:59:44;6.53;;;4.05;;
75700;SDS011;64321;48.796;44.740;2022-10-30T12:02:21;7.68;;;4.47;;
75700;SDS011;64321;48.796;44.740;2022-10-30T12:04:51;6.38;;;2.38;;
75700;SDS011;64321;48.796;44.740;2022-10-30T12:09:48;6.60;;;3.45;;
75700;SDS011;64321;48.796;44.740;2022-10-30T12:12:21;6.43;;;4.07;;
75700;SDS011;64321;48.796;44.740;2022-10-30T12:14:48;7.10;;;3.63;;
75700;SDS011;64321;48.796;44.740;2022-10-30T12:17:14;7.43;;;4.35;;
75700;SDS011;64321;48.796;44.740;2022-10-30T12:19:50;8.00;;;5.15;;
75700;SDS011;64321;48.796;44.740;2022-10-30T12:22:27;8.68;;;3.80;;
75700;SDS011;64321;48.796;44.740;2022-10-30T12:24:53;7.35;;;4.45;;
75700;SDS011;64321;48.796;44.740;2022-10-30T12:27:19;7.40;;;3.70;;
75700;SDS011;64321;48.796;44.740;2022-10-30T12:30:05;7.30;;;4.45;;
75700;SDS011;64321;48.796;44.740;2022-10-30T12:37:40;5.25;;;3.35;;
75700;SDS011;64321;48.796;44.740;2022-10-30T12:40:10;7.10;;;3.47;;
75700;SDS011;64321;48.796;44.740;2022-10-30T12:42:44;5.32;;;3.03;;
75700;SDS011;64321;48.796;44.740;2022-10-30T12:45:12;5.20;;;2.92;;
75700;SDS011;64321;48.796;44.740;2022-10-30T12:47:40;6.03;;;3.75;;
75700;SDS011;64321;48.796;44.740;2022-10-30T12:50:16;6.75;;;3.85;;
75700;SDS011;64321;48.796;44.740;2022-10-30T12:52:45;6.25;;;2.53;;
75700;SDS011;64321;48.796;44.740;2022-10-30T12:57:40;5.20;;;3.38;;
75700;SDS011;64321;48.796;44.740;2022-10-30T13:00:16;6.78;;;4.07;;
75700;SDS011;64321;48.796;44.740;2022-10-30T13:02:52;5.72;;;3.00;;
75700;SDS011;64321;48.796;44.740;2022-10-30T13:05:31;8.10;;;4.05;;
75700;SDS011;64321;48.796;44.740;2022-10-30T13:12:51;9.65;;;4.53;;
75700;SDS011;64321;48.796;44.740;2022-10-30T13:15:26;6.43;;;3.15;;
75700;SDS011;64321;48.796;44.740;2022-10-30T13:17:53;7.38;;;3.95;;
75700;SDS011;64321;48.796;44.740;2022-10-30T13:20:20;9.30;;;5.75;;
75700;SDS011;64321;48.796;44.740;2022-10-30T13:23:05;10.85;;;4.85;;
75700;SDS011;64321;48.796;44.740;2022-10-30T13:25:48;9.40;;;5.40;;
75700;SDS011;64321;48.796;44.740;2022-10-30T13:28:37;10.65;;;5.78;;
75700;SDS011;64321;48.796;44.740;2022-10-30T13:34:04;11.00;;;6.13;;
75700;SDS011;64321;48.796;44.740;2022-10-30T13:41:39;9.48;;;6.25;;
75700;SDS011;64321;48.796;44.740;2022-10-30T13:44:22;9.43;;;5.60;;
75700;SDS011;64321;48.796;44.740;2022-10-30T13:46:57;10.73;;;5.90;;
75700;SDS011;64321;48.796;44.740;2022-10-30T13:51:57;9.02;;;4.85;;
75700;SDS011;64321;48.796;44.740;2022-10-30T13:56:51;9.63;;;3.60;;
75700;SDS011;64321;48.796;44.740;2022-10-30T13:59:26;7.57;;;3.47;;
75700;SDS011;64321;48.796;44.740;2022-10-30T14:07:15;9.15;;;4.28;;
75700;SDS011;64321;48.796;44.740;2022-10-30T14:15:03;9.00;;;4.28;;
75700;SDS011;64321;48.796;44.740;2022-10-30T14:17:29;10.85;;;6.10;;
75700;SDS011;64321;48.796;44.740;2022-10-30T14:22:29;14.23;;;5.68;;
75700;SDS011;64321;48.796;44.740;2022-10-30T14:24:55;13.57;;;6.07;;
75700;SDS011;64321;48.796;44.740;2022-10-30T14:27:31;15.32;;;7.05;;
75700;SDS011;64321;48.796;44.740;2022-10-30T14:29:58;19.73;;;7.20;;
75700;SDS011;64321;48.796;44.740;2022-10-30T14:37:16;21.00;;;9.88;;
75700;SDS011;64321;48.796;44.740;2022-10-30T14:39:43;20.13;;;10.50;;
75700;SDS011;64321;48.796;44.740;2022-10-30T14:47:36;24.00;;;11.93;;
75700;SDS011;64321;48.796;44.740;2022-10-30T14:55:35;30.00;;;13.20;;
75700;SDS011;64321;48.796;44.740;2022-10-30T15:03:04;26.17;;;13.35;;
75700;SDS011;64321;48.796;44.740;2022-10-30T15:05:51;25.67;;;14.65;;
75700;SDS011;64321;48.796;44.740;2022-10-30T15:13:32;24.08;;;14.00;;
75700;SDS011;64321;48.796;44.740;2022-10-30T15:15:58;26.20;;;13.32;;
75700;SDS011;64321;48.796;44.740;2022-10-30T15:18:25;20.27;;;11.90;;
75700;SDS011;64321;48.796;44.740;2022-10-30T15:20:51;23.77;;;13.93;;
75700;SDS011;64321;48.796;44.740;2022-10-30T15:25:47;23.80;;;14.15;;
75700;SDS011;64321;48.796;44.740;2022-10-30T15:28:20;28.80;;;15.15;;
75700;SDS011;64321;48.796;44.740;2022-10-30T15:31:00;21.63;;;10.93;;
75700;SDS011;64321;48.796;44.740;2022-10-30T15:33:26;27.52;;;14.02;;
75700;SDS011;64321;48.796;44.740;2022-10-30T15:35:52;28.48;;;13.55;;
75700;SDS011;64321;48.796;44.740;2022-10-30T15:38:17;25.50;;;13.60;;
75700;SDS011;64321;48.796;44.740;2022-10-30T15:40:43;26.70;;;15.00;;
75700;SDS011;64321;48.796;44.740;2022-10-30T15:43:11;27.10;;;14.52;;
75700;SDS011;64321;48.796;44.740;2022-10-30T15:45:39;22.33;;;12.45;;
75700;SDS011;64321;48.796;44.740;2022-10-30T15:48:06;24.10;;;13.40;;
75700;SDS011;64321;48.796;44.740;2022-10-30T15:50:36;23.63;;;12.05;;
75700;SDS011;64321;48.796;44.740;2022-10-30T15:53:04;27.27;;;13.65;;
75700;SDS011;64321;48.796;44.740;2022-10-30T15:55:30;29.13;;;15.45;;
75700;SDS011;64321;48.796;44.740;2022-10-30T15:57:57;24.58;;;13.98;;
75700;SDS011;64321;48.796;44.740;2022-10-30T16:00:25;22.55;;;12.75;;
75700;SDS011;64321;48.796;44.740;2022-10-30T16:02:58;26.15;;;14.80;;
75700;SDS011;64321;48.796;44.740;2022-10-30T16:05:24;29.40;;;16.13;;
75700;SDS011;64321;48.796;44.740;2022-10-30T16:07:50;29.58;;;15.00;;
75700;SDS011;64321;48.796;44.740;2022-10-30T16:10:19;26.23;;;14.02;;
75700;SDS011;64321;48.796;44.740;2022-10-30T16:12:44;24.00;;;11.25;;
75700;SDS011;64321;48.796;44.740;2022-10-30T16:15:23;28.52;;;15.00;;
75700;SDS011;64321;48.796;44.740;2022-10-30T16:20:16;27.77;;;15.17;;
75700;SDS011;64321;48.796;44.740;2022-10-30T16:22:41;31.13;;;15.85;;
75700;SDS011;64321;48.796;44.740;2022-10-30T16:25:07;29.88;;;16.55;;
75700;SDS011;64321;48.796;44.740;2022-10-30T16:27:40;30.67;;;15.82;;
75700;SDS011;64321;48.796;44.740;2022-10-30T16:30:07;28.45;;;16.10;;
75700;SDS011;64321;48.796;44.740;2022-10-30T16:32:36;34.00;;;15.88;;
75700;SDS011;64321;48.796;44.740;2022-10-30T16:35:04;29.05;;;15.88;;
75700;SDS011;64321;48.796;44.740;2022-10-30T16:37:33;31.70;;;16.08;;
75700;SDS011;64321;48.796;44.740;2022-10-30T16:40:05;32.55;;;17.17;;
75700;SDS011;64321;48.796;44.740;2022-10-30T16:42:37;34.95;;;18.38;;
75700;SDS011;64321;48.796;44.740;2022-10-30T16:47:36;33.50;;;18.40;;
75700;SDS011;64321;48.796;44.740;2022-10-30T16:50:03;37.67;;;18.77;;
75700;SDS011;64321;48.796;44.740;2022-10-30T16:52:33;41.53;;;20.05;;
75700;SDS011;64321;48.796;44.740;2022-10-30T16:55:11;41.63;;;19.83;;
75700;SDS011;64321;48.796;44.740;2022-10-30T16:57:42;34.38;;;18.00;;
75700;SDS011;64321;48.796;44.740;2022-10-30T17:00:18;36.08;;;19.83;;
75700;SDS011;64321;48.796;44.740;2022-10-30T17:02:45;31.40;;;18.02;;
75700;SDS011;64321;48.796;44.740;2022-10-30T17:07:40;36.70;;;20.33;;
75700;SDS011;64321;48.796;44.740;2022-10-30T17:10:34;31.23;;;17.50;;
75700;SDS011;64321;48.796;44.740;2022-10-30T17:15:46;29.55;;;17.45;;